ADDS METAR Data INFO
IDs: Format: Raw Decoded Include TAF

Data at: 1743 UTC 15 Dec 2017

KAUH 151735Z AUTO 23015KT 10SM CLR 02/M02 A2997 RMK AO2 T00211021
KAUH 151715Z AUTO 23016KT 10SM CLR 02/M02 A2998 RMK AO2 T00161022
KAUH 151655Z AUTO 23014KT 10SM CLR 01/M03 A2999 RMK AO2 T00091026
KAUH 151635Z AUTO 23014KT 10SM CLR 00/M03 A3001 RMK AO2 T00031030
KAUH 151615Z AUTO 23016KT 10SM CLR 00/M03 A3001 RMK AO2 T10011034
KAUH 151555Z AUTO 23013KT 10SM CLR M01/M04 A3002 RMK AO2 T10121044
KAUH 151535Z AUTO 22012KT 10SM CLR M02/M05 A3002 RMK AO2 T10201046
KAUH 151515Z AUTO 22010KT 10SM CLR M02/M05 A3002 RMK AO2 T10211046
KAUH 151455Z AUTO 23006KT 10SM CLR M03/M05 A3003 RMK AO2 T10311052
KAUH 151435Z AUTO 22008KT 10SM CLR M04/M06 A3003 RMK AO2 T10391057
KAUH 151415Z AUTO 23008KT 10SM CLR M05/M06 A3003 RMK AO2 T10461061
KAUH 151355Z AUTO 22008KT 10SM CLR M04/M06 A3003 RMK AO2 T10451060
KAUH 151335Z AUTO 22008KT 10SM CLR M05/M06 A3004 RMK AO2 T10461060
KAUH 151315Z AUTO 24009KT 10SM CLR M04/M06 A3005 RMK AO2 T10431058
KAUH 151255Z AUTO 25008KT 10SM CLR M04/M06 A3007 RMK AO2 T10401056
KAUH 151235Z AUTO 24007KT 10SM CLR M04/M05 A3008 RMK AO2 T10381054
KAUH 151215Z AUTO 25008KT 10SM CLR M04/M06 A3008 RMK AO2 T10401058
KAUH 151155Z AUTO 25009KT 10SM CLR M03/M06 A3008 RMK AO2 70005 T10351056 10000 21053
KAUH 151135Z AUTO 26011KT 10SM CLR M03/M05 A3009 RMK AO2 T10301051
KAUH 151115Z AUTO 26010KT 10SM CLR M03/M05 A3010 RMK AO2 T10341052
KAUH 151055Z AUTO 26010KT 10SM CLR M04/M05 A3011 RMK AO2 T10361055
KAUH 151035Z AUTO 26009KT 10SM CLR M04/M06 A3011 RMK AO2 T10411060
KAUH 151015Z AUTO 26009KT 10SM CLR M04/M06 A3011 RMK AO2 T10401060
KAUH 150955Z AUTO 26009KT 10SM CLR M04/M06 A3013 RMK AO2 T10401060
KAUH 150935Z AUTO 26008KT 10SM CLR M05/M07 A3013 RMK AO2 T10531069
KAUH 150915Z AUTO 25006KT 10SM SCT050 M04/M06 A3012 RMK AO2 T10391059
KAUH 150855Z AUTO 26006KT 10SM BKN050 M02/M05 A3013 RMK AO2 T10241050
KAUH 150835Z AUTO 27009KT 10SM OVC050 M01/M04 A3015 RMK AO2 T10151042
KAUH 150815Z AUTO 28009KT 10SM OVC050 M01/M03 A3015 RMK AO2 T10131035
KAUH 150755Z AUTO 28009KT 10SM OVC050 M01/M03 A3015 RMK AO2 T10151032
KAUH 150735Z AUTO 28007KT 10SM OVC050 M02/M03 A3015 RMK AO2 T10211034
KAUH 150715Z AUTO 29005KT 10SM OVC050 M02/M03 A3015 RMK AO2 T10171032
KAUH 150655Z AUTO 30007KT 10SM OVC050 M01/M03 A3015 RMK AO2 T10151030
KAUH 150635Z AUTO 31007KT 10SM BKN048 M01/M03 A3016 RMK AO2 T10071027
KAUH 150615Z AUTO 32009KT 10SM OVC046 00/M02 A3017 RMK AO2 T00001020
KAUH 150555Z AUTO 32013KT 10SM OVC040 00/M02 A3017 RMK AO2 T00001020 10018 21013 400311028
KAUH 150535Z AUTO 32010KT 10SM SCT025 SCT033 OVC038 00/M02 A3017 RMK AO2 T00001017
KAUH 150515Z AUTO 31010KT 10SM BKN027 BKN033 OVC044 00/M02 A3017 RMK AO2 T00001016
KAUH 150455Z AUTO 30007KT 10SM BKN044 M01/M01 A3017 RMK AO2 T10061015
KAUH 150435Z AUTO 29006KT 10SM SCT016 M01/M02 A3017 RMK AO2 T10071018
KAUH 150415Z AUTO 31006KT 10SM SCT060 00/M01 A3016 RMK AO2 T10011013
KAUH 150355Z AUTO 32008KT 10SM SCT017 SCT034 BKN060 00/M01 A3017 RMK AO2 T00011008
KAUH 150335Z AUTO 33010KT 10SM SCT042 SCT055 00/M01 A3017 RMK AO2 T00021008
KAUH 150315Z AUTO 33010KT 10SM SCT047 OVC055 01/00 A3017 RMK AO2 T00061005
KAUH 150255Z AUTO 35010KT 10SM SCT012 BKN044 OVC049 01/00 A3017 RMK AO2 T00100000
KAUH 150235Z AUTO 33016KT 10SM SCT014 SCT035 OVC042 01/00 A3017 RMK AO2 T00120000
KAUH 150215Z AUTO 33013KT 10SM SCT014 BKN021 OVC042 01/00 A3017 RMK AO2 T00140000
KAUH 150155Z AUTO 33013KT 10SM SCT016 BKN030 OVC038 02/00 A3016 RMK AO2 T00150000
KAUH 150135Z AUTO 33014G19KT 10SM OVC032 02/00 A3016 RMK AO2 T00150001
KAUH 150115Z AUTO 33011KT 10SM OVC032 02/00 A3015 RMK AO2 T00150001
KAUH 150055Z AUTO 33011KT 10SM OVC032 02/00 A3015 RMK AO2 T00160001
KAUH 150035Z AUTO 33009KT 10SM OVC032 02/00 A3013 RMK AO2 T00160004
KAUH 150015Z AUTO 34012KT 10SM OVC036 02/00 A3013 RMK AO2 T00170002
KAUH 142355Z AUTO 33013KT 10SM SCT014 BKN040 OVC065 02/00 A3013 RMK AO2 60005 T00180003 10031 20018
KAUH 142335Z AUTO 33011KT 10SM SCT014 OVC024 02/01 A3012 RMK AO2 T00200007
KAUH 142315Z AUTO 33009KT 10SM BKN020 OVC029 02/01 A3011 RMK AO2 T00200008
KAUH 142255Z AUTO 34012G17KT 10SM -DZ SCT012 BKN020 OVC031 02/01 A3011 RMK AO2 T00200010
KAUH 142235Z AUTO 34012KT 7SM -DZ BKN012 OVC025 02/01 A3010 RMK AO2 T00230012
KAUH 142215Z AUTO 34011KT 10SM BKN010 BKN020 OVC049 03/01 A3010 RMK AO2 T00250012
KAUH 142155Z AUTO 34011KT 10SM -DZ SCT008 BKN012 OVC042 03/02 A3009 RMK AO2 T00250015
KAUH 142135Z AUTO 35011KT 10SM -DZ BKN008 BKN015 OVC039 03/02 A3008 RMK AO2 T00250015
KAUH 142115Z AUTO 35011KT 10SM DZ OVC008 02/01 A3008 RMK AO2 T00230013
KAUH 142055Z AUTO 36009KT 10SM RA OVC008 03/02 A3008 RMK AO2 P0002 60005 T00250016
KAUH 142035Z AUTO 34011KT 7SM -RA OVC008 03/02 A3007 RMK AO2 P0001 T00260015
KAUH 142015Z AUTO 34011KT 7SM RA OVC008 03/02 A3007 RMK AO2 P0001 T00270016
KAUH 141955Z AUTO 34013KT 7SM DZ BKN010 BKN015 OVC020 03/02 A3007 RMK AO2 P0002 T00300017
KAUH 141935Z AUTO 33012KT 10SM RA OVC010 03/02 A3007 RMK AO2 P0001 T00300017
KAUH 141915Z AUTO 33011KT 10SM RA BKN008 OVC015 03/02 A3007 RMK AO2 P0001 T00300019
KAUH 141855Z AUTO 32008KT 7SM DZ OVC008 03/02 A3007 RMK AO2 P0001 T00300019
KAUH 141835Z AUTO 32009KT 7SM RA BKN008 OVC014 03/02 A3007 RMK AO2 P0001 T00310019
KAUH 141815Z AUTO 32010KT 7SM -RA OVC008 03/02 A3007 RMK AO2 T00280016
KAUH 141755Z AUTO 33009KT 7SM -RA OVC008 03/02 A3008 RMK AO2 T00260015 10027 21028
KAUH 141735Z AUTO 32013KT 10SM -DZ OVC008 03/02 A3008 RMK AO2 T00260015
KAUH 141715Z AUTO 32011KT 7SM -RA BKN008 BKN013 OVC029 02/01 A3009 RMK AO2 T00210010
KAUH 141655Z AUTO 31009KT 4SM -SN SCT012 BKN032 OVC047 02/00 A3009 RMK AO2 T00150000
KAUH 141635Z AUTO 31011KT 10SM -RA SCT026 BKN045 OVC055 03/M01 A3009 RMK AO2 T00261010
KAUH 141615Z AUTO 29008KT 10SM BKN026 OVC032 02/M02 A3008 RMK AO2 T00231020
KAUH 141555Z AUTO 29008KT 10SM BKN032 OVC060 02/M02 A3008 RMK AO2 T00191021
KAUH 141535Z AUTO 27007KT 10SM SCT032 BKN060 01/M03 A3008 RMK AO2 T00071026
KAUH 141515Z AUTO 27007KT 10SM CLR 00/M03 A3008 RMK AO2 T00001027
KAUH 141455Z AUTO 26007KT 10SM SCT100 SCT120 M01/M03 A3007 RMK AO2 T10061031
KAUH 141435Z AUTO 26005KT 10SM BKN110 M01/M03 A3007 RMK AO2 T10121034
KAUH 141415Z AUTO 26006KT 10SM SCT120 M03/M04 A3007 RMK AO2 T10271045
KAUH 141355Z AUTO 27007KT 10SM CLR M03/M05 A3007 RMK AO2 T10271046
KAUH 141335Z AUTO 27006KT 10SM CLR M02/M04 A3007 RMK AO2 T10211042
KAUH 141315Z AUTO 27008KT 10SM SCT120 M02/M04 A3006 RMK AO2 T10221044
KAUH 141255Z AUTO 28007KT 10SM BKN110 M01/M04 A3006 RMK AO2 T10151039
KAUH 141235Z AUTO 28007KT 10SM CLR M01/M04 A3005 RMK AO2 T10111037
KAUH 141215Z AUTO 29007KT 10SM CLR M01/M04 A3005 RMK AO2 T10101036
KAUH 141155Z AUTO 28007KT 10SM CLR M01/M04 A3005 RMK AO2 T10101036 10005 21013
KAUH 141135Z AUTO 28008KT 10SM CLR M01/M04 A3004 RMK AO2 T10101037
KAUH 141115Z AUTO 28006KT 10SM CLR M01/M04 A3005 RMK AO2 T10131040
KAUH 141055Z AUTO 27008KT 10SM CLR M01/M04 A3005 RMK AO2 T10101039
KAUH 141035Z AUTO 27008KT 10SM SCT044 SCT120 M01/M04 A3005 RMK AO2 T10061037
KAUH 141015Z AUTO 28007KT 10SM OVC044 00/M04 A3005 RMK AO2 T10021036
KAUH 140955Z AUTO 30006KT 10SM OVC042 00/M03 A3005 RMK AO2 T00011033
KAUH 140935Z AUTO 30006KT 10SM OVC042 00/M03 A3005 RMK AO2 T00021032
KAUH 140915Z AUTO 31008KT 10SM OVC042 00/M03 A3005 RMK AO2 T00031033
KAUH 140855Z AUTO 31007KT 10SM OVC042 00/M03 A3005 RMK AO2 T00031032
KAUH 140835Z AUTO 29007KT 10SM OVC042 00/M03 A3005 RMK AO2 T00021031
KAUH 140815Z AUTO 30008KT 10SM OVC040 00/M03 A3006 RMK AO2 T00011030
KAUH 140755Z AUTO 31006KT 10SM OVC040 00/M03 A3005 RMK AO2 T10021032
KAUH 140735Z AUTO 31006KT 10SM OVC042 M01/M04 A3004 RMK AO2 T10111038
KAUH 140715Z AUTO 30006KT 10SM OVC042 00/M03 A3004 RMK AO2 T10051035
KAUH 140655Z AUTO 31007KT 10SM OVC042 00/M03 A3004 RMK AO2 T10011035
KAUH 140635Z AUTO 32009KT 10SM BKN044 00/M04 A3004 RMK AO2 T10031036
KAUH 140615Z AUTO 31008KT 10SM OVC044 00/M03 A3004 RMK AO2 T10021035
KAUH 140555Z AUTO 31007KT 10SM BKN042 M01/M04 A3003 RMK AO2 T10091038 10042 21016 401151016